createdAt,value
2017-07-22T05:31:19.491Z,99.99
2017-07-22T05:31:44.917Z,99.99
2017-07-22T05:32:10.401Z,99.99
2017-07-22T05:32:35.835Z,99.99
2017-07-22T05:33:01.289Z,99.99
2017-07-22T05:33:26.751Z,99.99
2017-07-22T05:33:52.229Z,99.99
2017-07-22T05:34:17.688Z,99.99
2017-07-22T05:34:43.154Z,99.99
2017-07-22T05:35:08.638Z,99.99
2017-07-22T05:35:34.103Z,99.99
2017-07-22T05:35:59.532Z,99.99
2017-07-22T05:36:25.020Z,99.99
2017-07-22T05:36:50.475Z,99.99
2017-07-22T05:37:15.937Z,99.99
2017-07-22T05:37:41.431Z,99.99
2017-07-22T05:38:06.879Z,99.99
2017-07-22T05:38:32.362Z,99.99
2017-07-22T05:38:57.838Z,99.99
2017-07-22T05:39:23.307Z,99.99
2017-07-22T05:39:48.766Z,99.99
2017-07-22T05:40:14.231Z,99.99
2017-07-22T05:40:39.703Z,99.99
2017-07-22T05:41:05.218Z,99.99
2017-07-22T05:41:30.677Z,99.99
2017-07-22T05:41:56.132Z,99.99
2017-07-22T05:42:21.633Z,99.99
2017-07-22T05:42:47.108Z,99.99
2017-07-22T05:43:12.558Z,99.99
2017-07-22T05:43:38.020Z,99.99
2017-07-22T05:44:03.540Z,99.99
2017-07-22T05:44:29.037Z,99.99
2017-07-22T05:44:54.512Z,99.99
2017-07-22T05:45:19.965Z,99.99
2017-07-22T05:45:45.415Z,99.99
2017-07-22T05:46:10.849Z,99.99
2017-07-22T05:47:24.649Z,99.99
2017-07-22T05:47:50.111Z,99.99
2017-07-22T05:48:15.580Z,99.99
2017-07-22T05:48:41.040Z,99.99
2017-07-22T05:49:06.505Z,99.99
2017-07-22T05:49:31.975Z,99.99
2017-07-22T05:49:57.433Z,99.99
2017-07-22T05:50:22.910Z,99.99
2017-07-22T05:50:48.378Z,99.99
2017-07-22T05:51:13.861Z,99.99
2017-07-22T05:51:39.300Z,99.99
2017-07-22T05:52:04.763Z,99.99
2017-07-22T05:52:30.251Z,99.99
2017-07-22T05:52:55.715Z,99.99
2017-07-22T05:53:21.190Z,99.99
2017-07-22T05:53:46.661Z,99.99
2017-07-22T05:54:12.143Z,99.99
2017-07-22T05:54:37.591Z,99.99
2017-07-22T05:55:03.098Z,99.99
2017-07-22T05:55:28.557Z,99.99
2017-07-22T05:55:54.037Z,99.99
2017-07-22T05:56:19.542Z,99.99
2017-07-22T05:56:45.033Z,99.99
2017-07-22T05:57:10.497Z,99.99
2017-07-22T05:57:35.953Z,99.99
2017-07-22T05:58:34.464Z,99.99
2017-07-22T05:58:59.900Z,99.99
2017-07-22T05:59:25.371Z,99.99
2017-07-22T05:59:50.855Z,99.99
2017-07-22T06:00:16.333Z,99.99
2017-07-22T06:00:41.774Z,99.99
2017-07-22T06:01:07.260Z,99.99
2017-07-22T06:01:32.736Z,99.99
2017-07-22T06:01:58.271Z,99.99
2017-07-22T06:02:23.665Z,99.99
2017-07-22T06:02:49.077Z,99.99
2017-07-22T06:03:14.540Z,99.99
2017-07-22T06:03:40.003Z,99.99
2017-07-22T06:04:05.503Z,99.99
2017-07-22T06:04:30.956Z,99.99
2017-07-22T06:04:56.425Z,99.99
2017-07-22T06:05:22.139Z,99.99
2017-07-22T06:05:47.461Z,99.99
2017-07-22T06:06:12.902Z,99.99
2017-07-22T06:06:38.381Z,99.99
2017-07-22T06:07:03.833Z,99.99
2017-07-22T06:07:29.364Z,99.99
2017-07-22T06:07:54.778Z,99.99
2017-07-22T06:08:20.260Z,99.99
2017-07-22T06:08:45.734Z,99.99
2017-07-22T06:09:11.244Z,99.99
2017-07-22T06:09:36.747Z,99.99
2017-07-22T06:10:02.165Z,99.99
2017-07-22T06:10:27.637Z,99.99
2017-07-22T06:10:53.092Z,99.99
2017-07-22T06:11:18.549Z,99.99
2017-07-22T06:11:43.987Z,99.99
2017-07-22T06:12:09.441Z,99.99
2017-07-22T06:12:34.911Z,99.99
2017-07-22T06:13:00.390Z,99.99
2017-07-22T06:13:25.858Z,99.99
2017-07-22T06:13:51.307Z,99.99
2017-07-22T06:14:16.798Z,99.99
2017-07-22T06:14:42.237Z,99.99
2017-07-22T06:15:07.696Z,99.99
2017-07-22T06:15:33.149Z,99.99
2017-07-22T06:15:58.611Z,99.99
2017-07-22T06:16:24.082Z,99.99
2017-07-22T06:16:49.547Z,99.99
2017-07-22T06:17:15.067Z,99.99
2017-07-22T06:17:40.535Z,99.99
2017-07-22T06:18:05.986Z,99.99
2017-07-22T06:18:31.424Z,99.99
2017-07-22T06:18:56.862Z,99.99
2017-07-22T06:19:22.345Z,99.99
2017-07-22T06:19:47.763Z,99.99
2017-07-22T06:20:13.221Z,99.99
2017-07-22T06:20:38.669Z,99.99
2017-07-22T06:21:04.127Z,99.99
2017-07-22T06:21:29.559Z,99.99
2017-07-22T06:21:54.974Z,99.99
2017-07-22T06:22:20.459Z,99.99
2017-07-22T06:22:45.956Z,99.99
2017-07-22T06:23:11.433Z,99.99
2017-07-22T06:23:36.888Z,99.99
2017-07-22T06:24:40.463Z,99.99
2017-07-22T06:25:05.937Z,99.99
2017-07-22T06:25:31.393Z,99.99
2017-07-22T06:25:56.920Z,99.99
2017-07-22T06:26:22.345Z,99.99
2017-07-22T06:26:47.792Z,99.99
2017-07-22T06:27:13.292Z,99.99
2017-07-22T06:27:38.737Z,99.99
2017-07-22T06:28:04.184Z,99.99
2017-07-22T06:28:29.661Z,99.99
2017-07-22T06:28:55.119Z,99.99
2017-07-22T06:29:20.573Z,99.99
2017-07-22T06:29:46.024Z,99.99
2017-07-22T06:30:11.502Z,99.99
2017-07-22T06:30:36.967Z,99.99
2017-07-22T06:31:02.452Z,99.99
2017-07-22T06:31:27.943Z,99.99
2017-07-22T06:31:53.414Z,99.99
2017-07-22T06:32:18.894Z,99.99
2017-07-22T06:32:44.373Z,99.99
2017-07-22T06:33:09.866Z,99.99
2017-07-22T06:33:35.345Z,99.99
2017-07-22T06:34:00.846Z,99.99
2017-07-22T06:34:26.271Z,99.99
2017-07-22T06:34:51.720Z,99.99
2017-07-22T06:35:17.246Z,99.99
2017-07-22T06:35:42.708Z,99.99
2017-07-22T06:36:08.206Z,99.99
2017-07-22T06:36:33.673Z,99.99
2017-07-22T06:36:59.125Z,99.99
2017-07-22T06:37:24.594Z,99.99
2017-07-22T06:37:50.076Z,99.99
2017-07-22T06:38:15.511Z,99.99
2017-07-22T06:38:41.077Z,99.99
2017-07-22T06:39:06.538Z,99.99
2017-07-22T06:39:32.011Z,99.99
2017-07-22T06:39:57.511Z,99.99
2017-07-22T06:40:22.930Z,99.99
2017-07-22T06:40:48.409Z,99.99
2017-07-22T06:41:13.892Z,99.99
2017-07-22T06:41:39.409Z,99.99
2017-07-22T06:42:04.919Z,99.99
2017-07-22T06:42:30.436Z,99.99
2017-07-22T06:42:55.908Z,99.99
2017-07-22T06:43:21.349Z,99.99
2017-07-22T06:43:46.783Z,99.99
2017-07-22T06:44:12.219Z,99.99
2017-07-22T06:44:37.674Z,99.99
2017-07-22T06:45:03.156Z,99.99
2017-07-22T06:45:28.605Z,99.99
2017-07-22T06:45:54.078Z,99.99
2017-07-22T06:46:19.579Z,99.99
2017-07-22T06:46:45.003Z,99.99
2017-07-22T06:47:10.486Z,99.99
2017-07-22T06:47:35.970Z,99.99
2017-07-22T06:48:01.373Z,99.99
2017-07-22T06:48:26.868Z,99.99
2017-07-22T06:48:52.349Z,99.99
2017-07-22T06:49:17.799Z,99.99
2017-07-22T06:49:43.267Z,99.99
2017-07-22T06:50:08.834Z,99.99
2017-07-22T06:50:34.260Z,99.99
2017-07-22T06:50:59.757Z,99.99
2017-07-22T06:51:25.204Z,99.99
2017-07-22T06:51:50.634Z,99.99
2017-07-22T06:52:16.108Z,99.99
2017-07-22T06:52:41.546Z,99.99
2017-07-22T06:53:07.057Z,99.99
2017-07-22T06:53:32.532Z,99.99
2017-07-22T06:53:58.036Z,99.99
2017-07-22T06:54:23.524Z,99.99
2017-07-22T06:54:49.002Z,99.99
2017-07-22T06:55:14.467Z,99.99
2017-07-22T06:55:39.924Z,99.99
2017-07-22T06:56:05.428Z,99.99
2017-07-22T06:56:30.907Z,99.99
2017-07-22T06:56:56.382Z,99.99
2017-07-22T06:57:21.808Z,99.99
2017-07-22T06:57:47.321Z,99.99
2017-07-22T06:58:12.830Z,99.99
2017-07-22T06:58:38.334Z,99.99
2017-07-22T06:59:03.847Z,99.99
2017-07-22T06:59:29.334Z,99.99
2017-07-22T06:59:54.836Z,99.99
2017-07-22T07:00:20.284Z,99.99
2017-07-22T07:00:45.777Z,99.99
2017-07-22T07:01:11.214Z,99.99
2017-07-22T07:01:36.685Z,99.99
2017-07-22T07:02:02.154Z,99.99
2017-07-22T07:02:27.634Z,99.99
2017-07-22T07:02:53.136Z,99.99
2017-07-22T07:03:18.591Z,99.99
2017-07-22T07:03:44.090Z,99.99
2017-07-22T07:04:09.614Z,99.99
2017-07-22T07:04:35.029Z,99.99
2017-07-22T07:05:01.416Z,99.99
2017-07-22T07:05:26.839Z,99.99
2017-07-22T07:05:52.273Z,99.99
2017-07-22T07:06:50.819Z,99.99
2017-07-22T07:07:16.327Z,99.99
2017-07-22T07:07:41.708Z,99.99
2017-07-22T07:08:07.231Z,99.99
2017-07-22T07:08:32.699Z,99.99
2017-07-22T07:08:58.190Z,99.99
2017-07-22T07:09:23.655Z,99.99
2017-07-22T07:09:49.104Z,99.99
2017-07-22T07:10:14.610Z,99.99
2017-07-22T07:10:40.099Z,99.99
2017-07-22T07:11:05.614Z,99.99
2017-07-22T07:11:31.066Z,99.99
2017-07-22T07:11:56.513Z,99.99
2017-07-22T07:12:21.993Z,99.99
2017-07-22T07:12:47.444Z,99.99
2017-07-22T07:13:12.910Z,99.99
2017-07-22T07:13:38.400Z,99.99
2017-07-22T07:14:03.862Z,99.99
2017-07-22T07:14:29.327Z,99.99
2017-07-22T07:14:54.820Z,99.99
2017-07-22T07:15:20.282Z,99.99
2017-07-22T07:15:45.706Z,99.99
2017-07-22T07:16:11.185Z,99.99
2017-07-22T07:16:36.651Z,99.99
2017-07-22T07:17:02.099Z,99.99
2017-07-22T07:17:27.557Z,99.99
2017-07-22T07:17:53.027Z,99.99
2017-07-22T07:18:18.567Z,99.99
2017-07-22T07:18:43.960Z,99.99
2017-07-22T07:19:09.446Z,99.99
2017-07-22T07:19:34.914Z,99.99
2017-07-22T07:20:00.431Z,99.99
2017-07-22T07:20:25.867Z,99.99
2017-07-22T07:20:51.354Z,99.99
2017-07-22T07:21:16.820Z,99.99
2017-07-22T07:21:42.325Z,99.99
2017-07-22T07:22:07.775Z,99.99
2017-07-22T07:22:33.215Z,99.99
2017-07-22T07:22:58.722Z,99.99
2017-07-22T07:23:24.204Z,99.99
2017-07-22T07:23:49.649Z,99.99
2017-07-22T07:24:15.148Z,99.99
2017-07-22T07:24:40.625Z,99.99
2017-07-22T07:25:06.057Z,99.99
2017-07-22T07:26:09.665Z,99.99
2017-07-22T07:26:35.153Z,99.99
2017-07-22T07:27:00.585Z,99.99
2017-07-22T07:27:26.046Z,99.99
2017-07-22T07:27:51.532Z,99.99
2017-07-22T07:28:16.994Z,99.99
2017-07-22T07:28:42.482Z,99.99
2017-07-22T07:29:07.909Z,99.99
2017-07-22T07:29:33.414Z,99.99
2017-07-22T07:29:59.141Z,99.99
2017-07-22T07:30:24.633Z,99.99
2017-07-22T07:30:50.098Z,99.99
2017-07-22T07:31:15.690Z,99.99
2017-07-22T07:31:41.361Z,99.99
2017-07-22T07:32:06.822Z,99.99
2017-07-22T07:32:32.326Z,99.99
2017-07-22T07:32:57.808Z,99.99
2017-07-22T07:33:56.308Z,99.99
2017-07-22T07:34:21.771Z,99.99
2017-07-22T07:34:47.235Z,99.99
2017-07-22T07:35:12.746Z,99.99
2017-07-22T07:35:38.244Z,99.99
2017-07-22T07:36:03.747Z,99.99
2017-07-22T07:36:29.192Z,99.99
2017-07-22T07:36:54.669Z,99.99
2017-07-22T07:37:20.127Z,99.99
2017-07-22T07:37:45.606Z,99.99
2017-07-22T07:38:11.079Z,99.99
2017-07-22T07:38:36.546Z,99.99
2017-07-22T07:39:02.000Z,99.99
2017-07-22T07:39:27.502Z,99.99
2017-07-22T07:39:53.032Z,99.99
2017-07-22T07:40:18.500Z,99.99
2017-07-22T07:40:43.964Z,99.99
2017-07-22T07:41:09.469Z,99.99
2017-07-22T07:41:34.955Z,99.99
2017-07-22T07:42:00.432Z,99.99
2017-07-22T07:42:25.924Z,99.99
2017-07-22T07:42:51.380Z,99.99
2017-07-22T07:43:16.901Z,99.99
2017-07-22T07:43:42.388Z,99.99
2017-07-22T07:44:07.880Z,99.99
2017-07-22T07:44:33.374Z,99.99
2017-07-22T07:44:58.860Z,99.99
2017-07-22T07:45:24.315Z,99.99
2017-07-22T07:46:22.820Z,99.99
2017-07-22T07:46:48.269Z,99.99
2017-07-22T07:47:13.731Z,99.99
2017-07-22T07:47:39.178Z,99.99
2017-07-22T07:48:04.654Z,99.99
2017-07-22T07:48:30.143Z,99.99
2017-07-22T07:48:55.612Z,99.99
2017-07-22T07:49:21.082Z,99.99
2017-07-22T07:49:46.570Z,99.99
2017-07-22T07:50:12.044Z,99.99
2017-07-22T07:50:37.566Z,99.99
2017-07-22T07:51:03.011Z,99.99
2017-07-22T07:51:28.488Z,99.99
2017-07-22T07:52:26.990Z,99.99
2017-07-22T07:52:52.479Z,99.99
2017-07-22T07:53:17.938Z,99.99
2017-07-22T07:53:43.401Z,99.99
2017-07-22T07:54:08.873Z,99.99
2017-07-22T07:54:34.337Z,99.99
2017-07-22T07:54:59.785Z,99.99
2017-07-22T07:55:25.249Z,99.99
2017-07-22T07:55:50.686Z,99.99
2017-07-22T07:56:16.163Z,99.99
2017-07-22T07:56:41.608Z,99.99
2017-07-22T07:57:07.119Z,99.99
2017-07-22T07:57:32.615Z,99.99
2017-07-22T07:57:58.135Z,99.99
2017-07-22T07:58:23.630Z,99.99
2017-07-22T07:58:49.130Z,99.99
2017-07-22T07:59:14.624Z,99.99
2017-07-22T07:59:40.089Z,99.99
2017-07-22T08:00:05.585Z,99.99
2017-07-22T08:00:31.073Z,99.99
2017-07-22T08:00:56.532Z,99.99
2017-07-22T08:01:22.001Z,99.99
2017-07-22T08:01:47.493Z,99.99
2017-07-22T08:02:12.942Z,99.99
2017-07-22T08:02:38.459Z,99.99
2017-07-22T08:03:03.936Z,99.99
2017-07-22T08:03:29.431Z,99.99
2017-07-22T08:03:54.898Z,99.99
2017-07-22T08:04:20.386Z,99.99
2017-07-22T08:04:45.882Z,99.99
2017-07-22T08:05:11.381Z,99.99
2017-07-22T08:05:36.875Z,99.99
2017-07-22T08:06:02.345Z,99.99
2017-07-22T08:06:27.861Z,99.99
2017-07-22T08:06:53.341Z,99.99
2017-07-22T08:07:18.831Z,99.99
2017-07-22T08:07:44.290Z,99.99
2017-07-22T08:08:09.779Z,99.99
2017-07-22T08:08:35.251Z,99.99
2017-07-22T08:09:00.729Z,99.99
2017-07-22T08:09:26.222Z,99.99
2017-07-22T08:09:51.730Z,99.99
2017-07-22T08:10:17.207Z,99.99
2017-07-22T08:10:42.666Z,99.99
2017-07-22T08:11:08.140Z,99.99
2017-07-22T08:11:33.590Z,99.99
2017-07-22T08:11:59.061Z,99.99
2017-07-22T08:12:24.529Z,99.99
2017-07-22T08:12:50.030Z,99.99
2017-07-22T08:13:15.491Z,99.99
2017-07-22T08:13:40.955Z,99.99
2017-07-22T08:14:06.422Z,99.99
2017-07-22T08:14:31.895Z,99.99
2017-07-22T08:14:57.381Z,99.99
2017-07-22T08:15:22.836Z,99.99
2017-07-22T08:15:48.343Z,99.99
2017-07-22T08:16:13.826Z,99.99
2017-07-22T08:16:39.318Z,99.99
2017-07-22T08:17:04.799Z,99.99
2017-07-22T08:17:30.243Z,99.99
2017-07-22T08:17:55.711Z,99.99
2017-07-22T08:18:21.187Z,99.99
2017-07-22T08:18:46.663Z,99.99
2017-07-22T08:19:12.140Z,99.99
2017-07-22T08:19:37.644Z,99.99
2017-07-22T08:20:03.129Z,99.99
2017-07-22T08:20:28.609Z,99.99
2017-07-22T08:21:27.120Z,99.99
2017-07-22T08:21:52.618Z,99.99
2017-07-22T08:22:18.113Z,99.99
2017-07-22T08:22:43.550Z,99.99
2017-07-22T08:23:09.018Z,99.99
2017-07-22T08:23:34.466Z,99.99
2017-07-22T08:23:59.950Z,99.99
2017-07-22T08:24:25.413Z,99.99
2017-07-22T08:24:50.889Z,99.99
2017-07-22T08:25:16.356Z,99.99
2017-07-22T08:25:41.827Z,99.99
2017-07-22T08:26:07.303Z,99.99
2017-07-22T08:26:32.756Z,99.99
2017-07-22T08:26:58.219Z,99.99
2017-07-22T08:27:23.692Z,99.99
2017-07-22T08:27:49.142Z,99.99
2017-07-22T08:28:14.595Z,99.99
2017-07-22T08:28:40.093Z,99.99
2017-07-22T08:29:05.547Z,99.99
2017-07-22T08:29:31.060Z,99.99
2017-07-22T08:29:56.528Z,99.99
2017-07-22T08:30:21.959Z,99.99
2017-07-22T08:30:47.411Z,99.99
2017-07-22T08:31:12.916Z,99.99
2017-07-22T08:31:38.387Z,99.99
2017-07-22T08:32:03.866Z,99.99
2017-07-22T08:32:29.332Z,99.99
2017-07-22T08:32:54.872Z,99.99
2017-07-22T08:33:20.364Z,99.99
2017-07-22T08:33:45.861Z,99.99
2017-07-22T08:34:11.402Z,99.99
2017-07-22T08:34:36.870Z,99.99
2017-07-22T08:35:02.383Z,99.99
2017-07-22T08:35:27.858Z,99.99
2017-07-22T08:35:53.335Z,99.99
2017-07-22T08:36:18.806Z,99.99
2017-07-22T08:36:44.290Z,99.99
2017-07-22T08:37:09.744Z,99.99
2017-07-22T08:37:35.256Z,99.99
2017-07-22T08:38:00.715Z,99.99
2017-07-22T08:38:26.197Z,99.99
2017-07-22T08:38:51.646Z,99.99
2017-07-22T08:39:17.117Z,99.99
2017-07-22T08:39:42.581Z,99.99
2017-07-22T08:40:08.041Z,99.99
2017-07-22T08:40:33.523Z,99.99
2017-07-22T08:40:59.014Z,99.99
2017-07-22T08:41:24.533Z,99.99
2017-07-22T08:41:50.012Z,99.99
2017-07-22T08:42:15.507Z,99.99
2017-07-22T08:42:40.995Z,99.99
2017-07-22T08:43:06.449Z,99.99
2017-07-22T08:43:31.986Z,99.99
2017-07-22T08:43:57.499Z,99.99
2017-07-22T08:44:22.983Z,99.99
2017-07-22T08:44:48.459Z,99.99
2017-07-22T08:45:57.153Z,97.42
2017-07-22T08:46:22.616Z,98
2017-07-22T08:46:48.095Z,99.94
2017-07-22T08:47:13.529Z,99.99
2017-07-22T08:47:38.993Z,99.99
2017-07-22T08:48:04.486Z,99.99
2017-07-22T08:48:29.988Z,99.65
2017-07-22T08:48:55.449Z,99.74
2017-07-22T08:49:20.893Z,99.99
2017-07-22T08:49:46.376Z,98.78
2017-07-22T08:50:11.863Z,98.88
2017-07-22T08:50:37.349Z,98.88
2017-07-22T08:51:02.761Z,99.45
2017-07-22T08:51:28.215Z,99.65
2017-07-22T08:51:53.696Z,99.74
2017-07-22T08:52:19.148Z,97.04
2017-07-22T08:52:44.623Z,95.68
2017-07-22T08:53:10.114Z,96.26
2017-07-22T08:53:35.600Z,96.75
2017-07-22T08:54:01.044Z,97.91
2017-07-22T08:54:26.538Z,98.58
2017-07-22T08:54:52.045Z,99.45
2017-07-22T08:55:17.514Z,98.97
2017-07-22T08:55:43.030Z,98.1
2017-07-22T08:56:08.538Z,98.58
2017-07-22T08:56:33.988Z,99.07
2017-07-22T08:56:59.452Z,99.45
2017-07-22T08:57:24.916Z,99.99
2017-07-22T08:57:50.395Z,99.99
2017-07-22T08:58:15.890Z,99.99
2017-07-22T08:58:41.455Z,99.99
2017-07-22T08:59:06.880Z,99.99
2017-07-22T08:59:32.410Z,99.99
2017-07-22T08:59:57.881Z,99.84
2017-07-22T09:00:23.395Z,99.5
2017-07-22T09:00:48.849Z,99.16
2017-07-22T09:01:14.329Z,99.5
2017-07-22T09:01:39.757Z,99.02
2017-07-22T09:02:05.268Z,96.61
2017-07-22T09:02:30.782Z,96.31
2017-07-22T09:02:56.313Z,95.54
2017-07-22T09:03:21.790Z,96.8
2017-07-22T09:03:47.307Z,96.8
2017-07-22T09:04:12.750Z,96.89
2017-07-22T09:05:11.262Z,98.15
2017-07-22T09:05:36.717Z,97.91
2017-07-22T09:06:02.195Z,97.14
2017-07-22T09:06:27.650Z,96.56
2017-07-22T09:06:53.157Z,95.01
2017-07-22T09:07:18.639Z,94.91
2017-07-22T09:07:44.125Z,93.37
2017-07-22T09:08:09.604Z,92.88
2017-07-22T09:08:35.058Z,93.46
2017-07-22T09:09:00.517Z,93.27
2017-07-22T09:09:25.977Z,93.56
2017-07-22T09:09:51.456Z,93.66
2017-07-22T09:10:16.950Z,94.14
2017-07-22T09:10:42.456Z,91.63
2017-07-22T09:11:07.904Z,92.49
2017-07-22T09:11:33.327Z,92.88
2017-07-22T09:11:58.804Z,93.08
2017-07-22T09:12:24.288Z,93.27
2017-07-22T09:12:49.792Z,92.21
2017-07-22T09:13:15.259Z,92.21
2017-07-22T09:13:40.752Z,91.33
2017-07-22T09:14:06.196Z,91.53
2017-07-22T09:14:31.683Z,92.4
2017-07-22T09:14:57.183Z,92.88
2017-07-22T09:15:22.678Z,92.98
2017-07-22T09:15:48.149Z,92.49
2017-07-22T09:16:13.635Z,93.17
2017-07-22T09:16:39.117Z,94.53
2017-07-22T09:17:04.654Z,94.72
2017-07-22T09:17:30.164Z,94.33
2017-07-22T09:17:55.648Z,93.75
2017-07-22T09:18:21.134Z,92.49
2017-07-22T09:18:46.630Z,90.75
2017-07-22T09:19:12.103Z,91.33
2017-07-22T09:19:37.562Z,89.79
2017-07-22T09:20:03.040Z,88.73
2017-07-22T09:20:28.510Z,88.73
2017-07-22T09:20:53.992Z,88.15
2017-07-22T09:21:19.444Z,88.43
2017-07-22T09:21:44.941Z,89.31
2017-07-22T09:22:10.430Z,89.89
2017-07-22T09:22:35.929Z,90.56
2017-07-22T09:23:01.474Z,90.56
2017-07-22T09:23:26.942Z,88.43
2017-07-22T09:23:52.403Z,87.95
2017-07-22T09:24:17.908Z,87.95
2017-07-22T09:24:43.367Z,88.05
2017-07-22T09:25:08.818Z,88.24
2017-07-22T09:25:34.324Z,89.84
2017-07-22T09:25:59.790Z,90.17
2017-07-22T09:26:25.277Z,89.79
2017-07-22T09:27:39.103Z,87.57
2017-07-22T09:28:04.580Z,88.43
2017-07-22T09:28:30.048Z,89.4
2017-07-22T09:28:55.516Z,90.75
2017-07-22T09:29:20.976Z,89.21
2017-07-22T09:29:46.438Z,89.5
2017-07-22T09:30:11.932Z,89.89
2017-07-22T09:30:37.375Z,90.37
2017-07-22T09:31:02.878Z,91.33
2017-07-22T09:31:28.423Z,91.14
2017-07-22T09:31:53.901Z,90.75
2017-07-22T09:32:19.386Z,89.89
2017-07-22T09:32:44.865Z,90.47
2017-07-22T09:33:10.344Z,89.98
2017-07-22T09:33:35.886Z,88.15
2017-07-22T09:34:01.328Z,85.63
2017-07-22T09:34:26.823Z,85.44
2017-07-22T09:34:52.294Z,87.08
2017-07-22T09:35:17.770Z,85.93
2017-07-22T09:35:43.270Z,84.77
2017-07-22T09:36:08.730Z,85.05
2017-07-22T09:36:34.211Z,84.67
2017-07-22T09:36:59.707Z,85.15
2017-07-22T09:37:25.202Z,85.05
2017-07-22T09:37:50.689Z,84.86
2017-07-22T09:38:16.168Z,85.93
2017-07-22T09:38:41.660Z,86.51
2017-07-22T09:39:07.134Z,86.65
2017-07-22T09:39:32.590Z,87.9
2017-07-22T09:39:58.044Z,87.18
2017-07-22T09:40:23.511Z,87.66
2017-07-22T09:40:49.008Z,86.25
2017-07-22T09:41:14.522Z,87.23
2017-07-22T09:41:39.988Z,87.71
2017-07-22T09:42:05.531Z,87.81
2017-07-22T09:42:31.002Z,87.61
2017-07-22T09:42:56.469Z,87.81
2017-07-22T09:43:21.939Z,86.93
2017-07-22T09:43:47.431Z,86.65
2017-07-22T09:44:12.917Z,87.51
2017-07-22T09:44:38.446Z,87.32
2017-07-22T09:45:03.869Z,88.19
2017-07-22T09:45:29.364Z,87.51
2017-07-22T09:45:54.851Z,87.51
2017-07-22T09:46:20.350Z,86.1
2017-07-22T09:46:45.835Z,84.9
2017-07-22T09:47:11.344Z,84.94
2017-07-22T09:47:36.813Z,85.72
2017-07-22T09:48:02.256Z,84.94
2017-07-22T09:48:27.730Z,85.14
2017-07-22T09:48:53.202Z,83.59
2017-07-22T09:49:18.680Z,83.11
2017-07-22T09:49:44.200Z,83.59
2017-07-22T09:50:09.684Z,83.98
2017-07-22T09:50:35.186Z,84.46
2017-07-22T09:51:00.686Z,82.53
2017-07-22T09:51:26.195Z,82.53
2017-07-22T09:51:51.640Z,80.2
2017-07-22T09:52:17.153Z,80.79
2017-07-22T09:52:42.612Z,79.62
2017-07-22T09:53:08.049Z,79.62
2017-07-22T09:53:33.536Z,80.2
2017-07-22T09:53:58.991Z,81.46
2017-07-22T09:54:24.485Z,80.2
2017-07-22T09:54:49.942Z,79.14
2017-07-22T09:55:15.448Z,79.52
2017-07-22T09:55:40.921Z,79.82
2017-07-22T09:56:06.363Z,80.3
2017-07-22T09:56:31.860Z,81.07
2017-07-22T09:56:57.304Z,81.27
2017-07-22T09:57:22.751Z,82.14
2017-07-22T09:57:48.251Z,81.46
2017-07-22T09:58:13.736Z,82.62
2017-07-22T09:58:39.234Z,81.95
2017-07-22T09:59:04.735Z,83.3
2017-07-22T09:59:30.199Z,83.2
2017-07-22T09:59:55.719Z,82.53
2017-07-22T10:00:21.138Z,78.94
2017-07-22T10:00:46.643Z,79.82
2017-07-22T10:01:12.183Z,81.85
2017-07-22T10:01:37.668Z,80.4
2017-07-22T10:02:03.173Z,79.24
2017-07-22T10:02:28.648Z,79.43
2017-07-22T10:02:54.146Z,79.52
2017-07-22T10:03:19.635Z,80.11
2017-07-22T10:03:45.117Z,80.98
2017-07-22T10:04:10.610Z,81.37
2017-07-22T10:04:36.080Z,81.85
2017-07-22T10:05:01.537Z,82.72
2017-07-22T10:05:27.035Z,82.33
2017-07-22T10:05:52.525Z,82.14
2017-07-22T10:06:18.019Z,82.47
2017-07-22T10:06:43.509Z,82.33
2017-07-22T10:07:08.982Z,79.04
2017-07-22T10:07:34.484Z,79.04
2017-07-22T10:07:59.890Z,79.62
2017-07-22T10:08:25.381Z,79.47
2017-07-22T10:08:50.833Z,78.99
2017-07-22T10:09:16.332Z,78.41
2017-07-22T10:09:41.795Z,78.31
2017-07-22T10:10:07.276Z,76.76
2017-07-22T10:10:32.786Z,75.6
2017-07-22T10:10:58.269Z,76.08
2017-07-22T10:11:23.722Z,76.08
2017-07-22T10:11:49.193Z,77.05
2017-07-22T10:12:14.674Z,75.89
2017-07-22T10:12:40.110Z,72.98
2017-07-22T10:13:05.572Z,74.24
2017-07-22T10:13:31.065Z,74.92
2017-07-22T10:13:56.531Z,76.37
2017-07-22T10:14:22.011Z,76.66
2017-07-22T10:14:47.484Z,77.82
2017-07-22T10:15:12.988Z,76.76
2017-07-22T10:15:38.461Z,76.37
2017-07-22T10:16:03.922Z,76.46
2017-07-22T10:16:29.451Z,76.95
2017-07-22T10:16:55.021Z,76.66
2017-07-22T10:17:20.543Z,76.56
2017-07-22T10:17:46.027Z,76.66
2017-07-22T10:18:11.495Z,77.05
2017-07-22T10:18:37.018Z,76.86
2017-07-22T10:19:02.480Z,77.14
2017-07-22T10:19:28.019Z,77.92
2017-07-22T10:19:53.507Z,78.02
2017-07-22T10:20:18.981Z,78.99
2017-07-22T10:20:44.476Z,79.37
2017-07-22T10:21:09.940Z,78.69
2017-07-22T10:21:35.418Z,76.95
2017-07-22T10:22:00.910Z,75.7
2017-07-22T10:22:26.386Z,75.5
2017-07-22T10:22:51.876Z,75.89
2017-07-22T10:23:17.354Z,75.4
2017-07-22T10:23:42.873Z,75.98
2017-07-22T10:24:08.319Z,75.89
2017-07-22T10:24:33.826Z,76.46
2017-07-22T10:24:59.279Z,74.15
2017-07-22T10:25:24.775Z,73.37
2017-07-22T10:25:50.256Z,74.63
2017-07-22T10:26:15.776Z,74.82
2017-07-22T10:26:41.293Z,74.82
2017-07-22T10:27:06.774Z,74.43
2017-07-22T10:27:32.239Z,75.02
2017-07-22T10:27:57.777Z,75.21
2017-07-22T10:28:23.258Z,75.5
2017-07-22T10:28:48.731Z,75.98
2017-07-22T10:29:47.274Z,75.15
2017-07-22T10:30:12.752Z,75.05
2017-07-22T10:30:38.284Z,75.15
2017-07-22T10:31:03.809Z,75.44
2017-07-22T10:31:29.293Z,73.89
2017-07-22T10:31:54.806Z,73.02
2017-07-22T10:32:20.263Z,73.02
2017-07-22T10:32:45.745Z,73.21
2017-07-22T10:33:11.205Z,73.6
2017-07-22T10:33:36.673Z,73.41
2017-07-22T10:34:02.161Z,73.02
2017-07-22T10:34:27.622Z,72.47
2017-07-22T10:34:53.099Z,73.25
2017-07-22T10:35:18.574Z,72.47
2017-07-22T10:35:44.044Z,71.41
2017-07-22T10:36:09.521Z,70.44
2017-07-22T10:36:34.993Z,70.25
2017-07-22T10:37:00.469Z,69.18
2017-07-22T10:37:25.957Z,69.47
2017-07-22T10:38:19.391Z,69.67
2017-07-22T10:38:44.856Z,70.05
2017-07-22T10:39:10.366Z,69.67
2017-07-22T10:39:35.839Z,69.57
2017-07-22T10:40:01.366Z,68.5
2017-07-22T10:40:26.816Z,69.67
2017-07-22T10:40:52.305Z,70.05
2017-07-22T10:41:17.795Z,71.02
2017-07-22T10:41:43.288Z,71.02
2017-07-22T10:42:08.814Z,70.73
2017-07-22T10:42:34.266Z,70.63
2017-07-22T10:42:59.730Z,70.92
2017-07-22T10:43:25.190Z,71.5
2017-07-22T10:43:50.649Z,71.02
2017-07-22T10:44:16.146Z,71.41
2017-07-22T10:44:41.616Z,71.02
2017-07-22T10:45:07.120Z,67.63
2017-07-22T10:46:05.606Z,69.57
2017-07-22T10:46:31.092Z,69.57
2017-07-22T10:46:56.560Z,69.95
2017-07-22T10:47:22.030Z,70.15
2017-07-22T10:47:47.494Z,71.31
2017-07-22T10:48:13.009Z,70.63
2017-07-22T10:48:38.474Z,70.73
2017-07-22T10:49:36.961Z,70.25
2017-07-22T10:50:02.491Z,70.63
2017-07-22T10:50:27.956Z,70.76
2017-07-22T10:50:53.383Z,70.83
2017-07-22T10:51:18.835Z,70.44
2017-07-22T10:51:44.330Z,70.67
2017-07-22T10:52:09.821Z,71.02
2017-07-22T10:52:35.305Z,69.85
2017-07-22T10:53:00.775Z,69.76
2017-07-22T10:53:26.247Z,70.54
2017-07-22T10:53:51.762Z,70.63
2017-07-22T10:54:17.241Z,71.02
2017-07-22T10:54:42.685Z,71.02
2017-07-22T10:55:08.172Z,71.02
2017-07-22T10:55:33.669Z,71.5
2017-07-22T10:55:59.150Z,71.02
2017-07-22T10:56:24.628Z,70.73
2017-07-22T10:56:50.105Z,69.67
2017-07-22T10:57:15.553Z,68.89
2017-07-22T10:57:41.010Z,69.95
2017-07-22T10:58:06.498Z,69.95
2017-07-22T10:58:32.030Z,69.76
2017-07-22T10:58:57.487Z,69.76
2017-07-22T10:59:22.964Z,70.05
2017-07-22T10:59:48.460Z,70.05
2017-07-22T11:00:13.917Z,69.47
2017-07-22T11:00:39.435Z,68.6
2017-07-22T11:01:04.863Z,69.08
2017-07-22T11:01:30.356Z,69.85
2017-07-22T11:01:55.884Z,69.76
2017-07-22T11:02:21.405Z,69.85
2017-07-22T11:02:46.876Z,65.4
2017-07-22T11:03:12.340Z,64.34
2017-07-22T11:03:37.836Z,65.53
2017-07-22T11:04:03.310Z,66.27
2017-07-22T11:04:28.778Z,67.08
2017-07-22T11:04:54.286Z,67.47
2017-07-22T11:05:19.811Z,66.99
2017-07-22T11:05:45.327Z,67.08
2017-07-22T11:06:10.849Z,67.27
2017-07-22T11:06:36.315Z,67.18
2017-07-22T11:07:01.807Z,66.99
2017-07-22T11:07:27.251Z,66.3
2017-07-22T11:07:52.723Z,66.5
2017-07-22T11:08:18.202Z,65.92
2017-07-22T11:08:43.702Z,66.3
2017-07-22T11:09:09.166Z,66.11